sensor_id;sensor_type;location;lat;lon;timestamp;pressure;altitude;pressure_sealevel;temperature;humidity
35806;BME280;21925;44.608;11.580;2023-01-28T00:01:14;101638.75;;;6.92;80.45
35806;BME280;21925;44.608;11.580;2023-01-28T00:03:41;101590.06;;;6.85;79.76
35806;BME280;21925;44.608;11.580;2023-01-28T00:06:10;101642.91;;;7.03;80.07
35806;BME280;21925;44.608;11.580;2023-01-28T00:08:37;101633.31;;;7.05;80.11
35806;BME280;21925;44.608;11.580;2023-01-28T00:11:04;101638.44;;;7.07;79.87
35806;BME280;21925;44.608;11.580;2023-01-28T00:13:31;101626.13;;;6.96;79.89
35806;BME280;21925;44.608;11.580;2023-01-28T00:15:58;101651.19;;;7.24;80.48
35806;BME280;21925;44.608;11.580;2023-01-28T00:18:25;101651.59;;;7.31;80.35
35806;BME280;21925;44.608;11.580;2023-01-28T00:21:02;101654.19;;;7.23;80.06
35806;BME280;21925;44.608;11.580;2023-01-28T00:23:30;101652.09;;;7.07;81.16
35806;BME280;21925;44.608;11.580;2023-01-28T00:26:00;101647.75;;;7.19;81.24
35806;BME280;21925;44.608;11.580;2023-01-28T00:28:26;101651.78;;;7.35;80.55
35806;BME280;21925;44.608;11.580;2023-01-28T00:30:52;101647.94;;;7.22;79.95
35806;BME280;21925;44.608;11.580;2023-01-28T00:33:18;101648.84;;;7.05;80.75
35806;BME280;21925;44.608;11.580;2023-01-28T00:35:45;101645.09;;;6.87;82.20
35806;BME280;21925;44.608;11.580;2023-01-28T00:38:11;101666.00;;;6.92;82.60
35806;BME280;21925;44.608;11.580;2023-01-28T00:40:37;101651.03;;;6.76;83.12
35806;BME280;21925;44.608;11.580;2023-01-28T00:43:03;101659.75;;;6.59;84.38
35806;BME280;21925;44.608;11.580;2023-01-28T00:45:28;101651.78;;;6.63;84.76
35806;BME280;21925;44.608;11.580;2023-01-28T00:47:54;101658.78;;;6.69;85.70
35806;BME280;21925;44.608;11.580;2023-01-28T00:50:20;101665.03;;;6.69;85.55
35806;BME280;21925;44.608;11.580;2023-01-28T00:52:46;101667.50;;;6.84;85.24
35806;BME280;21925;44.608;11.580;2023-01-28T00:58:31;101673.94;;;6.75;82.66
35806;BME280;21925;44.608;11.580;2023-01-28T01:03:37;101671.00;;;7.30;75.79
35806;BME280;21925;44.608;11.580;2023-01-28T01:06:03;101660.88;;;7.44;74.45
35806;BME280;21925;44.608;11.580;2023-01-28T01:08:29;101666.94;;;7.54;73.75
35806;BME280;21925;44.608;11.580;2023-01-28T01:11:00;101673.69;;;7.57;73.69
35806;BME280;21925;44.608;11.580;2023-01-28T01:13:26;101676.94;;;7.59;73.89
35806;BME280;21925;44.608;11.580;2023-01-28T01:18:30;101686.75;;;7.46;74.67
35806;BME280;21925;44.608;11.580;2023-01-28T01:20:55;101678.34;;;7.29;75.88
35806;BME280;21925;44.608;11.580;2023-01-28T01:23:27;101677.56;;;7.42;75.68
35806;BME280;21925;44.608;11.580;2023-01-28T01:25:55;101679.88;;;7.49;74.85
35806;BME280;21925;44.608;11.580;2023-01-28T01:28:21;101684.81;;;7.60;74.88
35806;BME280;21925;44.608;11.580;2023-01-28T01:30:47;101681.50;;;7.50;75.85
35806;BME280;21925;44.608;11.580;2023-01-28T01:33:14;101680.28;;;7.29;76.19
35806;BME280;21925;44.608;11.580;2023-01-28T01:35:39;101679.94;;;7.04;77.95
35806;BME280;21925;44.608;11.580;2023-01-28T01:38:05;101672.88;;;7.16;77.70
35806;BME280;21925;44.608;11.580;2023-01-28T01:40:31;101690.78;;;7.49;76.77
35806;BME280;21925;44.608;11.580;2023-01-28T01:42:59;101683.03;;;7.42;75.29
35806;BME280;21925;44.608;11.580;2023-01-28T01:45:25;101679.88;;;7.62;73.43
35806;BME280;21925;44.608;11.580;2023-01-28T01:47:55;101689.88;;;7.67;73.15
35806;BME280;21925;44.608;11.580;2023-01-28T01:50:33;101692.06;;;7.78;73.24
35806;BME280;21925;44.608;11.580;2023-01-28T01:53:05;101693.31;;;7.59;73.80
35806;BME280;21925;44.608;11.580;2023-01-28T01:55:34;101690.06;;;7.43;74.85
35806;BME280;21925;44.608;11.580;2023-01-28T01:58:05;101701.22;;;7.47;74.75
35806;BME280;21925;44.608;11.580;2023-01-28T02:00:31;101696.75;;;7.37;74.80
35806;BME280;21925;44.608;11.580;2023-01-28T02:02:57;101710.78;;;7.44;74.92
35806;BME280;21925;44.608;11.580;2023-01-28T02:05:23;101661.38;;;7.06;75.68
35806;BME280;21925;44.608;11.580;2023-01-28T02:07:51;101713.03;;;7.42;76.36
35806;BME280;21925;44.608;11.580;2023-01-28T02:10:20;101716.44;;;7.48;77.03
35806;BME280;21925;44.608;11.580;2023-01-28T02:12:52;101717.59;;;7.47;78.60
35806;BME280;21925;44.608;11.580;2023-01-28T02:15:24;101686.47;;;7.34;79.21
35806;BME280;21925;44.608;11.580;2023-01-28T02:17:51;101713.50;;;7.44;80.94
35806;BME280;21925;44.608;11.580;2023-01-28T02:28:45;101704.63;;;7.12;85.28
35806;BME280;21925;44.608;11.580;2023-01-28T02:31:21;101702.97;;;6.98;87.62
35806;BME280;21925;44.608;11.580;2023-01-28T02:34:01;101710.28;;;7.15;88.00
35806;BME280;21925;44.608;11.580;2023-01-28T02:42:45;101718.72;;;7.01;89.30
35806;BME280;21925;44.608;11.580;2023-01-28T02:45:24;101711.88;;;7.03;89.32
35806;BME280;21925;44.608;11.580;2023-01-28T02:48:11;101711.97;;;7.11;89.50
35806;BME280;21925;44.608;11.580;2023-01-28T02:51:19;101712.47;;;7.13;89.52
35806;BME280;21925;44.608;11.580;2023-01-28T02:53:57;101695.31;;;7.00;89.29
35806;BME280;21925;44.608;11.580;2023-01-28T02:56:50;101720.16;;;7.11;89.01
35806;BME280;21925;44.608;11.580;2023-01-28T02:59:28;101716.25;;;7.17;88.86
35806;BME280;21925;44.608;11.580;2023-01-28T03:02:24;101708.84;;;7.18;88.93
35806;BME280;21925;44.608;11.580;2023-01-28T03:05:08;101711.19;;;7.24;88.18
35806;BME280;21925;44.608;11.580;2023-01-28T03:07:37;101710.66;;;7.09;88.37
35806;BME280;21925;44.608;11.580;2023-01-28T03:10:07;101693.25;;;6.92;89.29
35806;BME280;21925;44.608;11.580;2023-01-28T03:12:36;101716.41;;;7.08;89.94
35806;BME280;21925;44.608;11.580;2023-01-28T03:15:25;101720.78;;;7.09;89.80
35806;BME280;21925;44.608;11.580;2023-01-28T03:18:24;101718.31;;;7.07;90.12
35806;BME280;21925;44.608;11.580;2023-01-28T03:21:17;101707.81;;;7.01;90.11
35806;BME280;21925;44.608;11.580;2023-01-28T03:24:23;101712.59;;;7.09;89.95
35806;BME280;21925;44.608;11.580;2023-01-28T03:27:28;101712.09;;;6.75;92.66
35806;BME280;21925;44.608;11.580;2023-01-28T03:30:36;101695.13;;;6.64;93.60
35806;BME280;21925;44.608;11.580;2023-01-28T03:33:30;101712.47;;;7.00;92.56
35806;BME280;21925;44.608;11.580;2023-01-28T03:36:16;101713.66;;;6.94;91.97
35806;BME280;21925;44.608;11.580;2023-01-28T03:39:01;101715.50;;;6.99;92.28
35806;BME280;21925;44.608;11.580;2023-01-28T03:41:27;101715.06;;;6.92;92.06
35806;BME280;21925;44.608;11.580;2023-01-28T03:43:55;101711.06;;;6.71;92.67
35806;BME280;21925;44.608;11.580;2023-01-28T03:46:21;101713.16;;;6.92;93.14
35806;BME280;21925;44.608;11.580;2023-01-28T03:48:47;101721.22;;;6.84;93.04
35806;BME280;21925;44.608;11.580;2023-01-28T03:51:14;101723.78;;;7.07;90.78
35806;BME280;21925;44.608;11.580;2023-01-28T03:53:40;101707.06;;;6.82;90.83
35806;BME280;21925;44.608;11.580;2023-01-28T03:56:07;101730.59;;;6.91;90.76
35806;BME280;21925;44.608;11.580;2023-01-28T03:58:33;101716.41;;;6.62;92.36
35806;BME280;21925;44.608;11.580;2023-01-28T04:01:18;101732.47;;;6.45;93.88
35806;BME280;21925;44.608;11.580;2023-01-28T04:03:44;101730.63;;;6.41;94.71
35806;BME280;21925;44.608;11.580;2023-01-28T04:06:13;101741.84;;;6.21;95.56
35806;BME280;21925;44.608;11.580;2023-01-28T04:09:02;101747.50;;;6.25;96.53
35806;BME280;21925;44.608;11.580;2023-01-28T04:11:35;101743.44;;;6.22;96.47
35806;BME280;21925;44.608;11.580;2023-01-28T04:14:02;101737.97;;;6.22;96.80
35806;BME280;21925;44.608;11.580;2023-01-28T04:16:48;101743.59;;;6.12;97.08
35806;BME280;21925;44.608;11.580;2023-01-28T04:19:15;101723.03;;;6.20;96.19
35806;BME280;21925;44.608;11.580;2023-01-28T04:21:42;101719.66;;;5.91;95.67
35806;BME280;21925;44.608;11.580;2023-01-28T04:24:08;101711.41;;;5.77;96.70
35806;BME280;21925;44.608;11.580;2023-01-28T04:26:34;101741.78;;;6.03;97.09
35806;BME280;21925;44.608;11.580;2023-01-28T04:29:00;101751.25;;;6.10;96.07
35806;BME280;21925;44.608;11.580;2023-01-28T04:31:26;101753.44;;;6.08;96.60
35806;BME280;21925;44.608;11.580;2023-01-28T04:34:15;101741.53;;;6.04;95.52
35806;BME280;21925;44.608;11.580;2023-01-28T04:37:11;101757.28;;;6.26;95.23
35806;BME280;21925;44.608;11.580;2023-01-28T04:40:06;101755.50;;;6.16;94.96
35806;BME280;21925;44.608;11.580;2023-01-28T04:42:54;101756.81;;;6.00;94.68
35806;BME280;21925;44.608;11.580;2023-01-28T04:45:40;101765.22;;;6.22;94.56
35806;BME280;21925;44.608;11.580;2023-01-28T04:48:19;101767.44;;;6.20;94.16
35806;BME280;21925;44.608;11.580;2023-01-28T04:51:14;101776.72;;;6.19;94.57
35806;BME280;21925;44.608;11.580;2023-01-28T04:53:49;101753.44;;;6.08;94.23
35806;BME280;21925;44.608;11.580;2023-01-28T04:56:27;101778.00;;;6.03;95.33
35806;BME280;21925;44.608;11.580;2023-01-28T04:58:54;101772.44;;;6.13;94.97
35806;BME280;21925;44.608;11.580;2023-01-28T05:01:19;101765.38;;;6.12;93.99
35806;BME280;21925;44.608;11.580;2023-01-28T05:03:46;101775.63;;;6.20;93.82
35806;BME280;21925;44.608;11.580;2023-01-28T05:06:19;101785.53;;;6.11;93.51
35806;BME280;21925;44.608;11.580;2023-01-28T05:08:46;101783.34;;;6.13;93.53
35806;BME280;21925;44.608;11.580;2023-01-28T05:11:12;101790.69;;;6.31;93.24
35806;BME280;21925;44.608;11.580;2023-01-28T05:13:39;101792.81;;;6.16;92.71
35806;BME280;21925;44.608;11.580;2023-01-28T05:16:06;101778.84;;;5.80;93.54
35806;BME280;21925;44.608;11.580;2023-01-28T05:18:32;101797.63;;;6.00;94.25
35806;BME280;21925;44.608;11.580;2023-01-28T05:21:10;101794.91;;;6.00;94.26
35806;BME280;21925;44.608;11.580;2023-01-28T05:23:37;101793.25;;;6.04;94.33
35806;BME280;21925;44.608;11.580;2023-01-28T05:26:03;101795.38;;;6.07;93.14
35806;BME280;21925;44.608;11.580;2023-01-28T05:28:29;101802.06;;;5.96;92.23
35806;BME280;21925;44.608;11.580;2023-01-28T05:30:57;101798.63;;;5.86;92.80
35806;BME280;21925;44.608;11.580;2023-01-28T05:33:26;101800.97;;;5.97;91.73
35806;BME280;21925;44.608;11.580;2023-01-28T05:35:52;101779.00;;;5.89;90.82
35806;BME280;21925;44.608;11.580;2023-01-28T05:38:19;101809.31;;;6.24;90.77
35806;BME280;21925;44.608;11.580;2023-01-28T05:40:46;101794.13;;;6.00;90.30
35806;BME280;21925;44.608;11.580;2023-01-28T05:43:12;101788.13;;;6.21;89.85
35806;BME280;21925;44.608;11.580;2023-01-28T05:45:44;101808.09;;;6.12;89.59
35806;BME280;21925;44.608;11.580;2023-01-28T05:48:40;101814.38;;;6.12;89.83
35806;BME280;21925;44.608;11.580;2023-01-28T05:51:42;101809.69;;;6.18;90.22
35806;BME280;21925;44.608;11.580;2023-01-28T05:54:08;101822.25;;;6.14;90.69
35806;BME280;21925;44.608;11.580;2023-01-28T05:56:34;101810.09;;;6.06;90.74
35806;BME280;21925;44.608;11.580;2023-01-28T05:59:02;101828.50;;;6.14;91.00
35806;BME280;21925;44.608;11.580;2023-01-28T06:01:29;101833.84;;;6.01;90.65
35806;BME280;21925;44.608;11.580;2023-01-28T06:03:54;101814.03;;;5.95;89.90
35806;BME280;21925;44.608;11.580;2023-01-28T06:06:20;101832.13;;;6.10;89.86
35806;BME280;21925;44.608;11.580;2023-01-28T06:08:46;101831.84;;;6.06;88.41
35806;BME280;21925;44.608;11.580;2023-01-28T06:11:16;101824.56;;;6.02;88.30
35806;BME280;21925;44.608;11.580;2023-01-28T06:13:42;101827.06;;;5.98;88.73
35806;BME280;21925;44.608;11.580;2023-01-28T06:16:22;101848.78;;;6.03;88.30
35806;BME280;21925;44.608;11.580;2023-01-28T06:19:23;101848.47;;;6.28;87.96
35806;BME280;21925;44.608;11.580;2023-01-28T06:21:49;101814.63;;;5.92;87.70
35806;BME280;21925;44.608;11.580;2023-01-28T06:24:16;101859.69;;;6.03;87.39
35806;BME280;21925;44.608;11.580;2023-01-28T06:26:42;101848.69;;;6.13;87.32
35806;BME280;21925;44.608;11.580;2023-01-28T06:29:08;101853.28;;;6.13;87.00
35806;BME280;21925;44.608;11.580;2023-01-28T06:31:33;101859.94;;;6.25;86.25
35806;BME280;21925;44.608;11.580;2023-01-28T06:33:59;101862.34;;;6.08;86.66
35806;BME280;21925;44.608;11.580;2023-01-28T06:36:24;101853.47;;;5.98;88.48
35806;BME280;21925;44.608;11.580;2023-01-28T06:38:50;101875.91;;;5.90;88.77
35806;BME280;21925;44.608;11.580;2023-01-28T06:41:16;101867.03;;;5.74;88.71
35806;BME280;21925;44.608;11.580;2023-01-28T06:43:42;101860.09;;;5.63;88.40
35806;BME280;21925;44.608;11.580;2023-01-28T06:46:07;101887.34;;;5.87;88.67
35806;BME280;21925;44.608;11.580;2023-01-28T06:48:33;101878.50;;;5.71;87.92
35806;BME280;21925;44.608;11.580;2023-01-28T06:50:59;101891.53;;;5.79;88.25
35806;BME280;21925;44.608;11.580;2023-01-28T06:53:24;101883.88;;;5.81;87.17
35806;BME280;21925;44.608;11.580;2023-01-28T06:55:50;101892.38;;;5.98;87.69
35806;BME280;21925;44.608;11.580;2023-01-28T06:58:16;101867.28;;;5.78;87.61
35806;BME280;21925;44.608;11.580;2023-01-28T07:00:42;101900.44;;;5.85;87.27
35806;BME280;21925;44.608;11.580;2023-01-28T07:03:07;101902.03;;;5.86;87.59
35806;BME280;21925;44.608;11.580;2023-01-28T07:05:33;101910.03;;;5.77;88.91
35806;BME280;21925;44.608;11.580;2023-01-28T07:07:59;101906.75;;;6.04;88.74
35806;BME280;21925;44.608;11.580;2023-01-28T07:10:26;101919.78;;;5.83;89.35
35806;BME280;21925;44.608;11.580;2023-01-28T07:12:53;101910.75;;;5.88;90.41
35806;BME280;21925;44.608;11.580;2023-01-28T07:15:19;101912.19;;;5.75;89.97
35806;BME280;21925;44.608;11.580;2023-01-28T07:17:44;101904.78;;;5.86;90.25
35806;BME280;21925;44.608;11.580;2023-01-28T07:20:12;101915.28;;;5.97;89.31
35806;BME280;21925;44.608;11.580;2023-01-28T07:22:40;101921.66;;;6.11;88.46
35806;BME280;21925;44.608;11.580;2023-01-28T07:25:07;101920.38;;;6.04;88.54
35806;BME280;21925;44.608;11.580;2023-01-28T07:27:33;101922.97;;;5.90;88.64
35806;BME280;21925;44.608;11.580;2023-01-28T07:29:58;101931.50;;;6.07;89.80
35806;BME280;21925;44.608;11.580;2023-01-28T07:32:24;101928.91;;;5.97;89.08
35806;BME280;21925;44.608;11.580;2023-01-28T07:34:52;101927.69;;;6.08;89.25
35806;BME280;21925;44.608;11.580;2023-01-28T07:37:18;101920.09;;;6.05;88.16
35806;BME280;21925;44.608;11.580;2023-01-28T07:39:44;101938.13;;;6.25;88.06
35806;BME280;21925;44.608;11.580;2023-01-28T07:42:10;101917.41;;;6.00;87.56
35806;BME280;21925;44.608;11.580;2023-01-28T07:44:37;101931.06;;;6.24;87.26
35806;BME280;21925;44.608;11.580;2023-01-28T07:47:04;101944.31;;;6.30;87.29
35806;BME280;21925;44.608;11.580;2023-01-28T07:49:30;101947.69;;;6.45;87.33
35806;BME280;21925;44.608;11.580;2023-01-28T07:51:57;101958.81;;;6.26;89.83
35806;BME280;21925;44.608;11.580;2023-01-28T07:54:23;101942.84;;;6.14;92.13
35806;BME280;21925;44.608;11.580;2023-01-28T07:56:49;101956.03;;;6.31;94.00
35806;BME280;21925;44.608;11.580;2023-01-28T07:59:15;101957.28;;;6.15;94.52
35806;BME280;21925;44.608;11.580;2023-01-28T08:01:40;101959.19;;;6.14;95.80
35806;BME280;21925;44.608;11.580;2023-01-28T08:04:06;101965.59;;;6.28;95.49
35806;BME280;21925;44.608;11.580;2023-01-28T08:06:32;101969.34;;;6.09;94.99
35806;BME280;21925;44.608;11.580;2023-01-28T08:09:06;101937.78;;;6.08;94.27
35806;BME280;21925;44.608;11.580;2023-01-28T08:11:33;101965.34;;;6.25;94.30
35806;BME280;21925;44.608;11.580;2023-01-28T08:14:00;101971.09;;;6.46;94.38
35806;BME280;21925;44.608;11.580;2023-01-28T08:16:26;101970.28;;;6.46;93.99
35806;BME280;21925;44.608;11.580;2023-01-28T08:18:53;101975.34;;;6.57;93.27
35806;BME280;21925;44.608;11.580;2023-01-28T08:21:19;101967.50;;;6.51;91.43
35806;BME280;21925;44.608;11.580;2023-01-28T08:23:45;101985.75;;;6.74;90.79
35806;BME280;21925;44.608;11.580;2023-01-28T08:26:11;101968.81;;;6.53;89.28
35806;BME280;21925;44.608;11.580;2023-01-28T08:28:36;101985.16;;;6.77;89.07
35806;BME280;21925;44.608;11.580;2023-01-28T08:31:02;101982.91;;;6.84;88.53
35806;BME280;21925;44.608;11.580;2023-01-28T08:33:28;101978.13;;;6.71;89.83
35806;BME280;21925;44.608;11.580;2023-01-28T08:35:55;101984.19;;;7.10;90.22
35806;BME280;21925;44.608;11.580;2023-01-28T08:38:24;101991.81;;;6.89;89.28
35806;BME280;21925;44.608;11.580;2023-01-28T08:40:57;101986.97;;;7.05;90.20
35806;BME280;21925;44.608;11.580;2023-01-28T08:43:24;101979.97;;;7.17;89.87
35806;BME280;21925;44.608;11.580;2023-01-28T08:45:50;101998.03;;;7.31;90.16
35806;BME280;21925;44.608;11.580;2023-01-28T08:48:30;101990.22;;;7.25;87.29
35806;BME280;21925;44.608;11.580;2023-01-28T08:51:02;101996.50;;;7.25;88.29
35806;BME280;21925;44.608;11.580;2023-01-28T08:53:54;101995.75;;;7.38;87.40
35806;BME280;21925;44.608;11.580;2023-01-28T08:56:39;101999.44;;;7.47;86.08
35806;BME280;21925;44.608;11.580;2023-01-28T08:59:10;102003.41;;;7.73;86.86
35806;BME280;21925;44.608;11.580;2023-01-28T09:01:36;102000.66;;;7.73;86.47
35806;BME280;21925;44.608;11.580;2023-01-28T09:04:02;101991.69;;;7.54;84.31
35806;BME280;21925;44.608;11.580;2023-01-28T09:06:30;101990.72;;;7.95;84.62
35806;BME280;21925;44.608;11.580;2023-01-28T09:09:01;101996.13;;;8.14;84.08
35806;BME280;21925;44.608;11.580;2023-01-28T09:11:29;102003.81;;;8.12;83.46
35806;BME280;21925;44.608;11.580;2023-01-28T09:14:01;101986.75;;;8.20;81.70
35806;BME280;21925;44.608;11.580;2023-01-28T09:16:31;102003.91;;;8.39;79.25
35806;BME280;21925;44.608;11.580;2023-01-28T09:18:58;101998.66;;;8.56;79.04
35806;BME280;21925;44.608;11.580;2023-01-28T09:21:26;102003.41;;;8.64;80.33
35806;BME280;21925;44.608;11.580;2023-01-28T09:24:05;102002.06;;;8.61;79.23
35806;BME280;21925;44.608;11.580;2023-01-28T09:27:12;102009.66;;;8.51;79.76
35806;BME280;21925;44.608;11.580;2023-01-28T09:30:27;102001.84;;;8.98;79.89
35806;BME280;21925;44.608;11.580;2023-01-28T09:32:54;102018.97;;;9.03;77.90
35806;BME280;21925;44.608;11.580;2023-01-28T09:35:20;102010.50;;;9.27;77.84
35806;BME280;21925;44.608;11.580;2023-01-28T09:37:47;102019.63;;;9.22;77.59
35806;BME280;21925;44.608;11.580;2023-01-28T09:45:57;102011.56;;;8.90;78.85
35806;BME280;21925;44.608;11.580;2023-01-28T09:48:37;102013.91;;;9.10;78.27
35806;BME280;21925;44.608;11.580;2023-01-28T09:51:09;102015.41;;;9.16;79.67
35806;BME280;21925;44.608;11.580;2023-01-28T09:53:43;102009.94;;;9.16;76.67
35806;BME280;21925;44.608;11.580;2023-01-28T09:56:24;102017.22;;;9.07;77.79
35806;BME280;21925;44.608;11.580;2023-01-28T09:58:51;102016.44;;;8.80;76.26
35806;BME280;21925;44.608;11.580;2023-01-28T10:01:37;102021.09;;;9.42;76.81
35806;BME280;21925;44.608;11.580;2023-01-28T10:15:17;101983.13;;;8.65;76.08
35806;BME280;21925;44.608;11.580;2023-01-28T10:17:53;101985.56;;;8.66;77.49
35806;BME280;21925;44.608;11.580;2023-01-28T10:23:43;101931.75;;;8.88;76.08
35806;BME280;21925;44.608;11.580;2023-01-28T10:26:20;102039.81;;;9.26;76.29
35806;BME280;21925;44.608;11.580;2023-01-28T10:28:53;101952.84;;;9.45;77.84
35806;BME280;21925;44.608;11.580;2023-01-28T10:31:22;101971.28;;;9.53;73.39
35806;BME280;21925;44.608;11.580;2023-01-28T10:33:55;102025.44;;;9.78;73.27
35806;BME280;21925;44.608;11.580;2023-01-28T10:36:27;102023.50;;;10.22;73.95
35806;BME280;21925;44.608;11.580;2023-01-28T10:38:59;101963.75;;;10.71;70.95
35806;BME280;21925;44.608;11.580;2023-01-28T10:41:31;101952.22;;;10.52;69.45
35806;BME280;21925;44.608;11.580;2023-01-28T10:43:59;101970.06;;;10.80;68.50
35806;BME280;21925;44.608;11.580;2023-01-28T10:46:37;101942.25;;;10.65;69.78
35806;BME280;21925;44.608;11.580;2023-01-28T10:49:17;101968.78;;;10.86;70.15
35806;BME280;21925;44.608;11.580;2023-01-28T10:51:49;101955.25;;;11.07;69.43
35806;BME280;21925;44.608;11.580;2023-01-28T10:54:21;101987.44;;;10.67;68.19
35806;BME280;21925;44.608;11.580;2023-01-28T10:56:53;102003.88;;;11.23;68.48
35806;BME280;21925;44.608;11.580;2023-01-28T10:59:28;101978.97;;;11.03;67.39
35806;BME280;21925;44.608;11.580;2023-01-28T11:02:02;101947.38;;;11.47;65.71
35806;BME280;21925;44.608;11.580;2023-01-28T11:04:38;101946.72;;;11.16;66.81
35806;BME280;21925;44.608;11.580;2023-01-28T11:07:19;101944.63;;;11.22;64.17
35806;BME280;21925;44.608;11.580;2023-01-28T11:10:20;102003.38;;;11.12;64.10
35806;BME280;21925;44.608;11.580;2023-01-28T11:13:02;101932.16;;;10.91;65.03
35806;BME280;21925;44.608;11.580;2023-01-28T11:15:29;101935.88;;;11.03;65.11
35806;BME280;21925;44.608;11.580;2023-01-28T11:18:03;101928.91;;;10.80;64.65
35806;BME280;21925;44.608;11.580;2023-01-28T11:20:42;101925.91;;;10.43;65.12
35806;BME280;21925;44.608;11.580;2023-01-28T11:23:30;101993.09;;;10.71;70.47
35806;BME280;21925;44.608;11.580;2023-01-28T11:26:08;101922.16;;;10.86;68.34
35806;BME280;21925;44.608;11.580;2023-01-28T11:28:44;101892.91;;;10.65;65.13
35806;BME280;21925;44.608;11.580;2023-01-28T11:31:14;101919.56;;;10.90;63.00
35806;BME280;21925;44.608;11.580;2023-01-28T11:34:01;101910.81;;;10.62;62.47
35806;BME280;21925;44.608;11.580;2023-01-28T11:36:33;101959.44;;;10.87;62.54
35806;BME280;21925;44.608;11.580;2023-01-28T11:41:43;101897.72;;;10.51;60.45
35806;BME280;21925;44.608;11.580;2023-01-28T11:44:22;101991.97;;;11.36;63.20
35806;BME280;21925;44.608;11.580;2023-01-28T11:47:20;101930.50;;;10.64;67.87
35806;BME280;21925;44.608;11.580;2023-01-28T11:50:10;101975.94;;;11.12;68.14
35806;BME280;21925;44.608;11.580;2023-01-28T11:53:26;101985.47;;;11.15;67.52
35806;BME280;21925;44.608;11.580;2023-01-28T11:58:55;101980.03;;;11.66;66.75
35806;BME280;21925;44.608;11.580;2023-01-28T12:07:37;101962.69;;;11.91;61.11
35806;BME280;21925;44.608;11.580;2023-01-28T12:10:23;101912.44;;;11.82;63.90
35806;BME280;21925;44.608;11.580;2023-01-28T12:13:33;101959.63;;;12.00;63.20
35806;BME280;21925;44.608;11.580;2023-01-28T12:16:30;101960.69;;;12.16;63.14
35806;BME280;21925;44.608;11.580;2023-01-28T12:22:07;101958.50;;;12.76;60.37
35806;BME280;21925;44.608;11.580;2023-01-28T12:30:33;101952.13;;;13.53;62.41
35806;BME280;21925;44.608;11.580;2023-01-28T12:36:24;101850.06;;;12.19;60.81
35806;BME280;21925;44.608;11.580;2023-01-28T12:45:36;101949.28;;;11.81;59.29
35806;BME280;21925;44.608;11.580;2023-01-28T12:48:31;101946.69;;;12.75;68.03
35806;BME280;21925;44.608;11.580;2023-01-28T12:51:26;101943.56;;;12.11;61.35
35806;BME280;21925;44.608;11.580;2023-01-28T12:56:36;101855.22;;;11.84;62.62
35806;BME280;21925;44.608;11.580;2023-01-28T12:59:16;101934.69;;;12.51;60.64
35806;BME280;21925;44.608;11.580;2023-01-28T13:01:48;101936.81;;;12.46;61.03
35806;BME280;21925;44.608;11.580;2023-01-28T13:04:35;101883.78;;;12.37;58.71
35806;BME280;21925;44.608;11.580;2023-01-28T13:07:07;101846.84;;;12.67;60.13
35806;BME280;21925;44.608;11.580;2023-01-28T13:09:47;101856.78;;;12.30;59.28
35806;BME280;21925;44.608;11.580;2023-01-28T13:12:30;101918.81;;;13.06;62.30
35806;BME280;21925;44.608;11.580;2023-01-28T13:15:15;101839.94;;;12.61;61.31
35806;BME280;21925;44.608;11.580;2023-01-28T13:18:04;101856.63;;;13.05;63.71
35806;BME280;21925;44.608;11.580;2023-01-28T13:20:52;101852.56;;;13.43;65.73
35806;BME280;21925;44.608;11.580;2023-01-28T13:24:03;101933.94;;;13.73;62.87
35806;BME280;21925;44.608;11.580;2023-01-28T13:29:26;101870.63;;;14.09;67.49
35806;BME280;21925;44.608;11.580;2023-01-28T13:31:59;101933.56;;;14.51;67.28
35806;BME280;21925;44.608;11.580;2023-01-28T13:37:16;101911.81;;;13.49;64.84
35806;BME280;21925;44.608;11.580;2023-01-28T13:39:53;101942.63;;;13.95;62.79
35806;BME280;21925;44.608;11.580;2023-01-28T13:42:42;101869.63;;;14.25;69.18
35806;BME280;21925;44.608;11.580;2023-01-28T13:48:00;101952.84;;;14.27;63.98
35806;BME280;21925;44.608;11.580;2023-01-28T13:50:39;101861.19;;;13.53;64.48
35806;BME280;21925;44.608;11.580;2023-01-28T13:53:26;101886.25;;;14.05;68.05
35806;BME280;21925;44.608;11.580;2023-01-28T13:56:06;101926.69;;;13.36;59.73
35806;BME280;21925;44.608;11.580;2023-01-28T14:13:13;101957.91;;;12.25;60.36
35806;BME280;21925;44.608;11.580;2023-01-28T14:18:44;101902.78;;;12.79;65.55
35806;BME280;21925;44.608;11.580;2023-01-28T14:21:20;101873.97;;;12.27;60.51
35806;BME280;21925;44.608;11.580;2023-01-28T14:23:49;101893.88;;;12.82;63.78
35806;BME280;21925;44.608;11.580;2023-01-28T14:26:33;101957.13;;;12.90;61.81
35806;BME280;21925;44.608;11.580;2023-01-28T14:29:06;101963.78;;;12.52;59.71
35806;BME280;21925;44.608;11.580;2023-01-28T14:31:36;101882.53;;;12.26;61.50
35806;BME280;21925;44.608;11.580;2023-01-28T14:36:59;101893.38;;;12.22;63.19
35806;BME280;21925;44.608;11.580;2023-01-28T14:39:46;101895.66;;;12.20;61.78
35806;BME280;21925;44.608;11.580;2023-01-28T14:42:21;101951.19;;;12.80;62.52
35806;BME280;21925;44.608;11.580;2023-01-28T14:47:44;101955.91;;;12.79;62.19
35806;BME280;21925;44.608;11.580;2023-01-28T15:01:44;101919.84;;;13.22;63.02
35806;BME280;21925;44.608;11.580;2023-01-28T15:04:41;101926.84;;;12.90;61.42
35806;BME280;21925;44.608;11.580;2023-01-28T15:07:22;101998.75;;;13.38;62.41
35806;BME280;21925;44.608;11.580;2023-01-28T15:10:04;101933.69;;;12.18;58.96
35806;BME280;21925;44.608;11.580;2023-01-28T15:12:39;101917.16;;;11.39;60.90
35806;BME280;21925;44.608;11.580;2023-01-28T15:15:29;101926.84;;;11.70;61.40
35806;BME280;21925;44.608;11.580;2023-01-28T15:18:09;101950.59;;;11.75;63.44
35806;BME280;21925;44.608;11.580;2023-01-28T15:20:38;101930.56;;;11.49;62.68